createdAt,value
2018-05-02T00:01:24.575Z,10.20
2018-05-02T00:03:50.075Z,10.37
2018-05-02T00:06:16.129Z,10.31
2018-05-02T00:08:41.753Z,10.20
2018-05-02T00:11:07.391Z,9.93
2018-05-02T00:13:33.640Z,10.06
2018-05-02T00:15:59.156Z,9.75
2018-05-02T00:18:24.736Z,9.80
2018-05-02T00:20:51.110Z,10.00
2018-05-02T00:23:16.727Z,9.77
2018-05-02T00:25:43.401Z,9.87
2018-05-02T00:28:09.533Z,9.86
2018-05-02T00:30:35.162Z,9.87
2018-05-02T00:33:00.731Z,9.80
2018-05-02T00:35:26.731Z,9.87
2018-05-02T00:37:52.239Z,9.72
2018-05-02T00:40:18.149Z,9.71
2018-05-02T00:42:44.212Z,10.04
2018-05-02T00:45:09.768Z,9.95
2018-05-02T00:47:35.280Z,9.83
2018-05-02T00:50:01.445Z,9.89
2018-05-02T00:52:26.965Z,9.83
2018-05-02T00:54:53.066Z,9.80
2018-05-02T00:57:18.604Z,9.84
2018-05-02T00:59:44.506Z,9.71
2018-05-02T01:02:10.084Z,9.57
2018-05-02T01:04:35.616Z,9.63
2018-05-02T01:07:01.676Z,9.64
2018-05-02T01:09:27.204Z,9.64
2018-05-02T01:11:52.780Z,9.54
2018-05-02T01:14:18.703Z,9.71
2018-05-02T01:16:44.251Z,9.77
2018-05-02T01:19:09.850Z,9.49
2018-05-02T05:40:28.764Z,13.42
2018-05-02T05:42:54.409Z,10.06
2018-05-02T05:45:19.988Z,9.64
2018-05-02T05:47:46.197Z,9.58
2018-05-02T05:50:13.149Z,9.58
2018-05-02T05:52:38.731Z,9.46
2018-05-02T05:55:04.915Z,9.63
2018-05-02T05:57:30.578Z,9.39
2018-05-02T05:59:56.146Z,9.34
2018-05-02T06:02:22.429Z,9.27
2018-05-02T06:04:48.078Z,9.48
2018-05-02T06:07:13.662Z,9.32
2018-05-02T06:09:39.343Z,9.36
2018-05-02T06:12:04.903Z,9.15
2018-05-02T06:14:30.538Z,9.44
2018-05-02T06:16:56.628Z,9.56
2018-05-02T06:19:22.301Z,9.57
2018-05-02T06:21:48.163Z,9.69
2018-05-02T06:24:13.740Z,9.82
2018-05-02T06:26:39.395Z,10.14
2018-05-02T06:29:05.169Z,10.04
2018-05-02T06:31:30.796Z,9.89
2018-05-02T06:33:56.431Z,9.80
2018-05-02T06:36:22.156Z,9.75
2018-05-02T06:38:47.745Z,9.77
2018-05-02T06:41:13.574Z,9.88
2018-05-02T06:43:39.341Z,9.99
2018-05-02T06:46:04.942Z,10.15
2018-05-02T06:48:30.523Z,9.97
2018-05-02T06:50:56.714Z,9.91
2018-05-02T06:53:22.288Z,9.95
2018-05-02T06:55:47.837Z,10.11
2018-05-02T06:58:13.665Z,10.16
2018-05-02T07:00:39.441Z,10.06
2018-05-02T07:03:05.054Z,10.30
2018-05-02T07:05:30.903Z,10.03
2018-05-02T07:07:56.476Z,10.40
2018-05-02T07:10:22.149Z,10.58
2018-05-02T07:12:47.936Z,10.88
2018-05-02T07:15:13.493Z,10.89
2018-05-02T07:17:39.153Z,10.66
2018-05-02T07:20:04.960Z,10.81
2018-05-02T07:22:30.853Z,11.03
2018-05-02T07:24:56.435Z,10.90
2018-05-02T07:27:22.304Z,11.10
2018-05-02T07:29:47.928Z,11.28
2018-05-02T07:32:13.487Z,11.26
2018-05-02T07:34:39.537Z,11.29
2018-05-02T07:37:05.464Z,11.13
2018-05-02T07:39:31.083Z,11.30
2018-05-02T07:41:56.929Z,11.28
2018-05-02T07:44:22.482Z,11.33
2018-05-02T07:46:48.093Z,11.34
2018-05-02T07:49:13.911Z,11.40
2018-05-02T07:51:39.475Z,11.42
2018-05-02T07:54:05.029Z,11.49
2018-05-02T07:56:30.869Z,11.55
2018-05-02T07:58:56.683Z,11.86
2018-05-02T08:01:22.239Z,11.91
2018-05-02T08:03:48.016Z,11.89
2018-05-02T08:06:13.866Z,11.74
2018-05-02T08:08:39.469Z,11.76
2018-05-02T08:11:05.403Z,11.67
2018-05-02T08:13:30.969Z,12.05
2018-05-02T08:15:56.532Z,12.04
2018-05-02T08:18:22.328Z,12.09
2018-05-02T08:20:47.964Z,11.98
2018-05-02T08:23:13.716Z,12.18
2018-05-02T08:25:39.531Z,12.30
2018-05-02T08:28:06.566Z,12.39
2018-05-02T08:30:32.161Z,12.42
2018-05-02T08:32:58.000Z,12.44
2018-05-02T08:35:23.496Z,12.35
2018-05-02T08:37:49.109Z,12.34
2018-05-02T08:40:14.827Z,12.32
2018-05-02T08:42:40.406Z,12.46
2018-05-02T08:45:05.963Z,12.25
2018-05-02T08:47:31.813Z,12.40
2018-05-02T08:49:57.474Z,12.49
2018-05-02T08:52:23.307Z,12.74
2018-05-02T08:54:49.136Z,12.56
2018-05-02T08:57:14.745Z,12.60
2018-05-02T08:59:40.323Z,12.76
2018-05-02T09:02:06.069Z,12.63
2018-05-02T09:04:31.707Z,12.79
2018-05-02T09:06:57.265Z,12.94
2018-05-02T09:09:23.097Z,12.93
2018-05-02T09:11:48.926Z,12.58
2018-05-02T09:14:14.507Z,12.89
2018-05-02T09:16:40.358Z,13.19
2018-05-02T09:19:05.930Z,13.08
2018-05-02T09:21:31.553Z,12.82
2018-05-02T09:23:57.301Z,12.81
2018-05-02T09:26:24.258Z,12.95
2018-05-02T09:28:49.821Z,13.03
2018-05-02T09:31:15.612Z,13.23
2018-05-02T09:33:41.413Z,13.43
2018-05-02T09:36:06.981Z,13.62
2018-05-02T09:38:32.889Z,13.46
2018-05-02T09:40:58.434Z,13.59
2018-05-02T09:43:24.167Z,13.58
2018-05-02T09:45:49.780Z,13.41
2018-05-02T09:48:15.346Z,13.66
2018-05-02T09:50:41.196Z,13.75
2018-05-02T09:53:06.761Z,13.49
2018-05-02T09:55:32.324Z,13.65
2018-05-02T09:57:58.120Z,13.62
2018-05-02T10:04:04.949Z,14.02
2018-05-02T10:06:30.521Z,13.81
2018-05-02T10:08:56.087Z,13.84
2018-05-02T10:11:21.882Z,13.99
2018-05-02T10:13:47.534Z,14.02
2018-05-02T10:16:13.115Z,13.81
2018-05-02T10:18:38.881Z,14.02
2018-05-02T10:21:04.504Z,14.11
2018-05-02T10:23:30.302Z,14.23
2018-05-02T10:25:56.035Z,14.27
2018-05-02T10:28:21.645Z,14.09
2018-05-02T10:30:47.203Z,14.07
2018-05-02T10:33:12.968Z,14.24
2018-05-02T10:35:38.577Z,14.23
2018-05-02T10:38:04.132Z,14.20
2018-05-02T10:40:29.964Z,14.30
2018-05-02T10:42:55.727Z,14.29
2018-05-02T10:45:21.305Z,14.28
2018-05-02T10:47:47.057Z,14.33
2018-05-02T10:52:56.574Z,14.40
2018-05-02T10:55:22.194Z,14.36
2018-05-02T10:57:47.808Z,14.48
2018-05-02T11:00:13.726Z,14.42
2018-05-02T11:02:39.349Z,14.57
2018-05-02T11:05:05.040Z,14.59
2018-05-02T11:07:30.906Z,14.92
2018-05-02T11:09:56.655Z,14.94
2018-05-02T11:12:22.494Z,14.95
2018-05-02T11:14:48.358Z,14.83
2018-05-02T11:17:14.057Z,14.93
2018-05-02T11:19:39.674Z,14.93
2018-05-02T11:22:05.635Z,15.04
2018-05-02T11:24:31.226Z,15.10
2018-05-02T11:26:57.063Z,14.96
2018-05-02T11:29:22.996Z,14.99
2018-05-02T11:31:48.604Z,15.17
2018-05-02T11:34:14.249Z,15.50
2018-05-02T11:36:40.208Z,15.58
2018-05-02T11:39:05.827Z,15.40
2018-05-02T11:41:31.642Z,15.46
2018-05-02T11:43:57.261Z,15.36
2018-05-02T11:46:23.172Z,15.25
2018-05-02T11:48:48.786Z,15.53
2018-05-02T11:51:14.496Z,15.40
2018-05-02T11:53:40.292Z,15.52
2018-05-02T11:56:05.999Z,15.47
2018-05-02T11:58:31.624Z,15.76
2018-05-02T12:00:57.474Z,15.69
2018-05-02T12:03:23.106Z,15.82
2018-05-02T12:05:48.927Z,15.66
2018-05-02T12:08:14.703Z,15.47
2018-05-02T12:10:40.354Z,15.34
2018-05-02T12:13:06.045Z,15.59
2018-05-02T12:15:31.848Z,15.82
2018-05-02T12:17:57.762Z,15.60
2018-05-02T12:20:23.404Z,15.83
2018-05-02T12:22:49.158Z,15.79
2018-05-02T12:25:14.777Z,15.49
2018-05-02T12:27:40.762Z,15.19
2018-05-02T12:30:06.529Z,15.40
2018-05-02T12:32:32.124Z,15.84
2018-05-02T12:34:57.744Z,15.78
2018-05-02T12:37:23.712Z,15.87
2018-05-02T12:39:49.330Z,15.88
2018-05-02T12:42:14.949Z,16.16
2018-05-02T12:44:40.807Z,16.65
2018-05-02T12:47:06.501Z,16.50
2018-05-02T12:49:32.450Z,16.39
2018-05-02T12:51:58.316Z,16.50
2018-05-02T12:54:23.941Z,16.34
2018-05-02T12:56:49.570Z,16.22
2018-05-02T12:59:15.359Z,16.16
2018-05-02T13:01:41.192Z,16.09
2018-05-02T13:04:07.217Z,16.62
2018-05-02T13:06:33.340Z,16.86
2018-05-02T13:08:58.940Z,17.04
2018-05-02T13:11:24.566Z,17.01
2018-05-02T13:13:50.452Z,17.23
2018-05-02T13:16:16.387Z,17.14
2018-05-02T13:18:42.030Z,17.04
2018-05-02T13:21:07.854Z,17.12
2018-05-02T13:23:33.467Z,16.96
2018-05-02T13:25:59.165Z,17.11
2018-05-02T13:28:25.027Z,17.30
2018-05-02T13:30:50.659Z,17.32
2018-05-02T13:33:16.358Z,16.76
2018-05-02T13:35:42.172Z,16.84
2018-05-02T13:38:07.854Z,16.96
2018-05-02T13:40:33.469Z,16.96
2018-05-02T13:42:59.328Z,17.37
2018-05-02T13:45:25.218Z,17.81
2018-05-02T13:47:50.835Z,17.15
2018-05-02T13:50:16.559Z,17.51
2018-05-02T13:52:42.317Z,17.61
2018-05-02T13:55:08.351Z,17.75
2018-05-02T13:57:33.961Z,17.72
2018-05-02T13:59:59.594Z,17.67
2018-05-02T14:02:25.417Z,16.90
2018-05-02T14:04:51.111Z,17.25
2018-05-02T14:07:16.670Z,17.32
2018-05-02T14:09:42.468Z,17.46
2018-05-02T14:12:08.040Z,17.71
2018-05-02T14:14:33.650Z,17.78
2018-05-02T14:16:59.504Z,17.88
2018-05-02T14:19:25.071Z,17.94
2018-05-02T14:21:50.654Z,18.22
2018-05-02T14:24:16.415Z,18.50
2018-05-02T14:26:41.990Z,18.85
2018-05-02T14:29:07.565Z,18.65
2018-05-02T14:31:33.919Z,18.66
2018-05-02T14:33:59.747Z,18.31
2018-05-02T14:36:25.395Z,18.10
2018-05-02T14:38:51.326Z,18.29
2018-05-02T14:41:16.893Z,18.14
2018-05-02T14:43:42.705Z,18.60
2018-05-02T14:46:08.489Z,18.59
2018-05-02T14:48:34.084Z,18.29
2018-05-02T14:50:59.713Z,17.82
2018-05-02T14:53:25.521Z,17.77
2018-05-02T14:55:51.096Z,17.88
2018-05-02T14:58:16.668Z,18.15
2018-05-02T15:00:42.526Z,18.13
2018-05-02T15:03:08.287Z,18.17
2018-05-02T15:05:33.869Z,17.82
2018-05-02T15:07:59.737Z,17.97
2018-05-02T15:10:25.302Z,18.16
2018-05-02T15:12:50.888Z,17.92
2018-05-02T15:15:16.620Z,17.82
2018-05-02T15:17:42.242Z,17.66
2018-05-02T15:20:07.858Z,17.70
2018-05-02T15:22:33.597Z,17.57
2018-05-02T15:24:59.333Z,18.00
2018-05-02T15:27:24.906Z,17.73
2018-05-02T15:29:50.750Z,18.02
2018-05-02T15:32:16.375Z,18.28
2018-05-02T15:34:41.994Z,18.46
2018-05-02T15:37:07.817Z,18.48
2018-05-02T15:39:33.411Z,18.61
2018-05-02T15:41:59.073Z,18.89
2018-05-02T15:44:24.919Z,18.70
2018-05-02T15:46:50.494Z,18.74
2018-05-02T15:49:16.231Z,18.53
2018-05-02T15:51:41.950Z,18.46
2018-05-02T15:54:07.512Z,18.32
2018-05-02T15:56:33.075Z,18.73
2018-05-02T15:58:58.803Z,18.47
2018-05-02T16:01:24.356Z,18.53
2018-05-02T16:03:50.223Z,18.36
2018-05-02T16:06:16.055Z,18.12
2018-05-02T16:08:41.601Z,18.12
2018-05-02T16:11:07.983Z,18.11
2018-05-02T16:13:33.793Z,17.82
2018-05-02T16:15:59.365Z,18.01
2018-05-02T16:18:24.937Z,17.69
2018-05-02T16:20:51.693Z,17.75
2018-05-02T16:23:17.263Z,17.45
2018-05-02T16:25:42.925Z,17.42
2018-05-02T16:28:08.909Z,17.73
2018-05-02T16:30:34.469Z,17.54
2018-05-02T16:33:00.188Z,17.50
2018-05-02T16:35:25.725Z,17.42
2018-05-02T16:37:51.680Z,17.62
2018-05-02T16:40:17.305Z,17.59
2018-05-02T16:42:43.042Z,17.37
2018-05-02T16:45:08.696Z,17.53
2018-05-02T16:47:34.222Z,17.55
2018-05-02T16:49:59.940Z,17.61
2018-05-02T16:52:25.521Z,17.47
2018-05-02T16:54:51.090Z,17.56
2018-05-02T16:57:17.067Z,17.49
2018-05-02T16:59:42.639Z,17.43
2018-05-02T17:02:08.424Z,17.33
2018-05-02T17:04:34.255Z,17.36
2018-05-02T17:06:59.855Z,17.33
2018-05-02T17:09:25.460Z,17.17
2018-05-02T17:11:51.328Z,17.31
2018-05-02T17:14:16.985Z,17.17
2018-05-02T17:16:42.662Z,17.17
2018-05-02T17:19:08.511Z,17.20
2018-05-02T17:21:34.081Z,17.33
2018-05-02T17:23:59.654Z,17.14
2018-05-02T17:26:25.372Z,17.29
2018-05-02T17:28:50.987Z,17.50
2018-05-02T17:31:16.819Z,17.22
2018-05-02T17:33:42.674Z,17.23
2018-05-02T17:36:08.294Z,17.36
2018-05-02T17:38:34.177Z,17.30
2018-05-02T17:40:59.993Z,17.19
2018-05-02T17:43:25.520Z,17.27
2018-05-02T17:45:52.595Z,17.03
2018-05-02T17:48:18.179Z,16.76
2018-05-02T17:50:44.340Z,16.94
2018-05-02T17:53:09.934Z,16.93
2018-05-02T17:55:35.683Z,16.79
2018-05-02T17:58:01.771Z,16.83
2018-05-02T18:00:27.396Z,16.98
2018-05-02T18:02:52.957Z,16.97
2018-05-02T18:05:18.731Z,16.89
2018-05-02T18:07:44.324Z,16.92
2018-05-02T18:10:09.902Z,16.95
2018-05-02T18:12:35.769Z,16.96
2018-05-02T18:15:01.431Z,16.90
2018-05-02T18:17:27.041Z,16.86
2018-05-02T18:19:52.749Z,16.77
2018-05-02T18:22:18.350Z,16.77
2018-05-02T18:24:43.978Z,16.74
2018-05-02T18:27:09.785Z,16.70
2018-05-02T18:29:35.405Z,16.72
2018-05-02T18:32:00.983Z,16.76
2018-05-02T18:34:27.118Z,16.84
2018-05-02T18:36:52.669Z,16.73
2018-05-02T18:39:18.336Z,16.71
2018-05-02T18:41:44.343Z,16.63
2018-05-02T18:44:09.973Z,16.62
2018-05-02T18:46:35.564Z,16.72
2018-05-02T18:49:02.069Z,16.56
2018-05-02T18:51:28.357Z,16.49
2018-05-02T18:53:53.935Z,16.57
2018-05-02T18:56:20.436Z,16.32
2018-05-02T18:58:46.071Z,16.46
2018-05-02T19:02:44.608Z,16.67
2018-05-02T19:05:10.245Z,17.88
2018-05-02T19:07:35.850Z,17.07
2018-05-02T19:10:01.974Z,16.59
2018-05-02T19:12:27.591Z,16.62
2018-05-02T19:14:53.227Z,16.61
2018-05-02T19:17:19.601Z,16.52
2018-05-02T19:20:04.109Z,16.59
2018-05-02T19:22:30.472Z,16.65
2018-05-02T19:25:15.693Z,16.90
2018-05-02T19:27:41.648Z,16.51
2018-05-02T19:30:07.227Z,16.41
2018-05-02T19:32:52.288Z,16.81
2018-05-02T19:35:17.898Z,16.52
2018-05-02T19:37:43.512Z,16.39
2018-05-02T19:40:28.106Z,16.18
2018-05-02T19:43:12.662Z,16.12
2018-05-02T19:45:39.825Z,16.11
2018-05-02T19:48:05.407Z,16.09
2018-05-02T19:50:31.052Z,16.18
2018-05-02T19:52:57.125Z,16.16
2018-05-02T19:55:22.707Z,16.19
2018-05-02T19:57:48.606Z,16.16
2018-05-02T20:00:33.719Z,16.06
2018-05-02T20:03:02.318Z,16.22
2018-05-02T20:05:27.954Z,16.33
2018-05-02T20:07:53.967Z,16.49
2018-05-02T20:10:38.118Z,16.13
2018-05-02T20:13:23.135Z,16.45
2018-05-02T20:15:48.707Z,16.02
2018-05-02T20:18:14.290Z,15.95
2018-05-02T20:20:40.277Z,15.98
2018-05-02T20:23:06.390Z,15.96
2018-05-02T20:25:32.015Z,16.03
2018-05-02T20:27:58.321Z,16.00
2018-05-02T20:30:24.612Z,16.28
2018-05-02T20:35:22.305Z,15.99
2018-05-02T20:37:48.403Z,15.80
2018-05-02T20:40:13.968Z,16.02
2018-05-02T20:42:39.605Z,15.87
2018-05-02T20:45:05.321Z,15.74
2018-05-02T20:47:30.938Z,15.65
2018-05-02T20:49:56.470Z,15.56
2018-05-02T20:52:22.178Z,15.44
2018-05-02T20:54:47.840Z,15.37
2018-05-02T20:57:13.377Z,15.34
2018-05-02T20:59:39.488Z,15.24
2018-05-02T21:02:05.056Z,15.41
2018-05-02T21:04:30.633Z,15.21
2018-05-02T21:06:56.342Z,15.64
2018-05-02T21:09:21.982Z,15.44
2018-05-02T21:11:47.557Z,15.28
2018-05-02T21:14:13.257Z,15.28
2018-05-02T21:16:38.893Z,15.34
2018-05-02T21:19:04.484Z,15.65
2018-05-02T21:21:30.246Z,15.32
2018-05-02T21:23:57.100Z,15.62
2018-05-02T21:26:22.760Z,15.34
2018-05-02T21:28:48.430Z,15.12
2018-05-02T21:31:14.206Z,15.02
2018-05-02T21:33:39.960Z,15.26
2018-05-02T21:36:05.524Z,15.04
2018-05-02T21:38:31.305Z,14.95
2018-05-02T21:40:56.871Z,14.89
2018-05-02T21:43:22.438Z,14.84
2018-05-02T21:45:48.202Z,14.79
2018-05-02T21:48:13.824Z,14.69
2018-05-02T21:50:39.463Z,14.64
2018-05-02T21:53:05.303Z,14.54
2018-05-02T21:55:30.872Z,14.41
2018-05-02T21:57:56.619Z,14.31
2018-05-02T22:00:22.328Z,14.26
2018-05-02T22:02:47.903Z,14.47
2018-05-02T22:05:13.631Z,14.28
2018-05-02T22:07:39.335Z,14.42
2018-05-02T22:10:04.957Z,14.20
2018-05-02T22:12:30.729Z,14.07
2018-05-02T22:14:56.515Z,14.06
2018-05-02T22:17:22.057Z,14.04
2018-05-02T22:19:47.636Z,14.11
2018-05-02T22:22:13.465Z,14.19
2018-05-02T22:24:39.062Z,14.34
2018-05-02T22:27:04.649Z,14.14
2018-05-02T22:29:30.369Z,14.05
2018-05-02T22:31:55.941Z,14.02
2018-05-02T22:34:21.781Z,14.18
2018-05-02T22:36:47.355Z,13.95
2018-05-02T22:39:13.171Z,13.83
2018-05-02T22:41:38.928Z,13.80
2018-05-02T22:44:04.497Z,13.77
2018-05-02T22:46:30.167Z,13.74
2018-05-02T22:48:55.969Z,13.71
2018-05-02T22:51:21.641Z,13.78
2018-05-02T22:53:47.215Z,13.79
2018-05-02T22:56:12.982Z,13.75
2018-05-02T22:58:38.591Z,13.77
2018-05-02T23:01:04.398Z,13.71
2018-05-02T23:03:30.159Z,13.69
2018-05-02T23:05:56.258Z,13.72
2018-05-02T23:08:21.835Z,13.68
2018-05-02T23:10:47.632Z,13.73
2018-05-02T23:13:13.237Z,13.74
2018-05-02T23:15:38.804Z,13.76
2018-05-02T23:18:04.613Z,13.75
2018-05-02T23:20:30.332Z,13.79
2018-05-02T23:22:55.953Z,13.91
2018-05-02T23:25:21.736Z,13.91
2018-05-02T23:27:47.298Z,13.84
2018-05-02T23:30:13.022Z,13.97
2018-05-02T23:32:38.795Z,13.92
2018-05-02T23:35:04.359Z,13.91
2018-05-02T23:37:29.942Z,13.86
2018-05-02T23:39:55.689Z,13.87
2018-05-02T23:42:21.316Z,13.86
2018-05-02T23:44:46.984Z,13.84
2018-05-02T23:47:12.779Z,13.83
2018-05-02T23:49:38.625Z,13.78
2018-05-02T23:52:04.274Z,13.76
2018-05-02T23:54:30.250Z,14.06
2018-05-02T23:56:55.809Z,13.86
2018-05-02T23:59:21.520Z,13.82
